Time;durP1;ratioP1;P1;durP2;ratioP2;P2;SDS_P1;SDS_P2;PMS_P1;PMS_P2;Temp;Humidity;BMP_temperature;BMP_pressure;BME280_temperature;BME280_humidity;BME280_pressure;Samples;Min_cycle;Max_cycle;Signal;HPM_P1;HPM_P2
2023/06/13 00:01:48;;;;;;;5.00;4.80;;;17.40;48.90;;;;;;6290288;28;20229;-83
2023/06/13 00:04:52;;;;;;;5.20;4.37;;;17.40;49.20;;;;;;6271601;28;20241;-83
2023/06/13 00:07:56;;;;;;;4.13;3.93;;;17.30;49.30;;;;;;6285297;28;20706;-82
2023/06/13 00:10:59;;;;;;;4.37;3.90;;;17.20;49.40;;;;;;6278283;28;20241;-81
2023/06/13 00:14:03;;;;;;;4.83;4.33;;;17.20;49.40;;;;;;6276437;28;20237;-83
2023/06/13 00:17:07;;;;;;;4.37;4.07;;;17.20;49.60;;;;;;6276604;28;20849;-84
2023/06/13 00:20:12;;;;;;;4.23;4.03;;;17.20;49.70;;;;;;6274291;28;20239;-81
2023/06/13 00:23:16;;;;;;;4.47;4.27;;;17.00;49.90;;;;;;6273381;28;20237;-83
2023/06/13 00:26:19;;;;;;;4.20;3.90;;;17.00;49.80;;;;;;6274880;28;20843;-82
2023/06/13 00:29:22;;;;;;;3.80;3.60;;;17.00;49.80;;;;;;6289583;28;20257;-80
2023/06/13 00:32:25;;;;;;;4.20;4.00;;;16.90;50.00;;;;;;6277248;28;20272;-82
2023/06/13 00:35:29;;;;;;;4.97;4.67;;;16.90;50.10;;;;;;6266688;28;20870;-81
2023/06/13 00:38:33;;;;;;;4.10;3.90;;;16.80;50.40;;;;;;6269291;28;20241;-79
2023/06/13 00:41:36;;;;;;;4.30;4.10;;;16.80;50.60;;;;;;6271452;28;20247;-80
2023/06/13 00:44:38;;;;;;;4.40;4.20;;;16.80;50.70;;;;;;6268924;28;20241;-81
2023/06/13 00:47:42;;;;;;;4.17;3.87;;;16.70;50.80;;;;;;6291257;28;20338;-81
2023/06/13 00:50:47;;;;;;;3.50;3.40;;;16.70;50.70;;;;;;6281023;28;20233;-81
2023/06/13 00:53:52;;;;;;;4.33;4.07;;;16.70;50.70;;;;;;6281246;28;20271;-81
2023/06/13 00:56:55;;;;;;;3.90;3.70;;;16.60;51.20;;;;;;6269049;28;20284;-80
2023/06/13 00:59:58;;;;;;;4.20;3.90;;;16.50;51.70;;;;;;6276266;28;20358;-84
2023/06/13 01:03:07;;;;;;;4.57;4.37;;;16.50;51.50;;;;;;6281022;28;20233;-81
2023/06/13 01:06:13;;;;;;;4.80;4.20;;;16.50;51.40;;;;;;6270823;28;20225;-81
2023/06/13 01:09:17;;;;;;;4.30;4.00;;;16.40;51.30;;;;;;6286801;28;20724;-81
2023/06/13 01:12:30;;;;;;;4.40;4.10;;;16.40;51.30;;;;;;6283277;28;20252;-82
2023/06/13 01:15:37;;;;;;;4.57;4.17;;;16.40;51.60;;;;;;6283410;28;20295;-82
2023/06/13 01:18:44;;;;;;;6.13;4.67;;;16.40;51.50;;;;;;6277623;28;20254;-82
2023/06/13 01:21:50;;;;;;;6.43;3.97;;;16.30;51.70;;;;;;6270114;28;20245;-80
2023/06/13 01:25:02;;;;;;;5.63;4.37;;;16.30;51.50;;;;;;6287020;28;20296;-81
2023/06/13 01:28:07;;;;;;;7.17;4.50;;;16.20;51.60;;;;;;6273628;28;20737;-81
2023/06/13 01:31:13;;;;;;;4.90;4.37;;;16.20;51.80;;;;;;6270801;28;20350;-82
2023/06/13 01:34:17;;;;;;;4.60;4.30;;;16.20;51.70;;;;;;6288428;28;20733;-83
2023/06/13 01:37:21;;;;;;;4.27;3.97;;;16.20;51.80;;;;;;6274676;28;20785;-80
2023/06/13 01:40:24;;;;;;;4.43;4.33;;;16.10;51.70;;;;;;6280226;28;20604;-81
2023/06/13 01:43:28;;;;;;;4.60;4.33;;;16.10;51.90;;;;;;6266132;28;20233;-80
2023/06/13 01:46:33;;;;;;;4.57;4.20;;;16.00;52.10;;;;;;6294907;28;20517;-82
2023/06/13 01:49:46;;;;;;;4.13;3.97;;;16.00;52.20;;;;;;6268636;28;20234;-81
2023/06/13 01:52:58;;;;;;;5.03;4.33;;;15.90;52.30;;;;;;6261871;28;20261;-82
2023/06/13 01:56:03;;;;;;;5.50;4.53;;;15.80;52.40;;;;;;6271383;28;20795;-82
2023/06/13 01:59:08;;;;;;;5.00;4.23;;;15.80;52.50;;;;;;6278127;28;20771;-81
2023/06/13 02:02:13;;;;;;;4.83;4.03;;;15.80;52.70;;;;;;6290782;28;20237;-82
2023/06/13 02:05:16;;;;;;;4.53;4.23;;;15.80;52.80;;;;;;6272941;28;20234;-81
2023/06/13 02:08:19;;;;;;;4.60;4.23;;;15.70;52.70;;;;;;6275057;28;20933;-81
2023/06/13 02:11:22;;;;;;;4.60;4.40;;;15.60;52.80;;;;;;6273427;28;20252;-81
2023/06/13 02:14:27;;;;;;;4.90;4.50;;;15.60;52.90;;;;;;6265154;28;20264;-82
2023/06/13 02:17:31;;;;;;;5.00;4.50;;;15.60;53.10;;;;;;6278393;28;20241;-82
2023/06/13 02:20:35;;;;;;;4.37;4.17;;;15.60;53.00;;;;;;6279963;28;20283;-80
2023/06/13 02:23:38;;;;;;;4.13;4.00;;;15.50;53.10;;;;;;6267899;28;20868;-81
2023/06/13 02:26:41;;;;;;;4.20;4.00;;;15.50;53.20;;;;;;6264415;28;20230;-81
2023/06/13 02:29:45;;;;;;;4.60;4.30;;;15.40;53.50;;;;;;6272686;28;20246;-81
2023/06/13 02:32:49;;;;;;;3.97;3.87;;;15.40;53.50;;;;;;6273392;28;20249;-80
2023/06/13 02:35:52;;;;;;;3.57;3.47;;;15.30;53.60;;;;;;6281970;28;20233;-82
2023/06/13 02:38:55;;;;;;;3.97;3.77;;;15.30;53.70;;;;;;6278379;28;20332;-80
2023/06/13 02:41:58;;;;;;;4.73;4.30;;;15.20;53.70;;;;;;6257489;28;20745;-83
2023/06/13 02:45:03;;;;;;;5.47;4.47;;;15.20;54.10;;;;;;6270219;28;20277;-82
2023/06/13 02:48:06;;;;;;;4.97;4.67;;;15.20;54.10;;;;;;6279359;28;20280;-81
2023/06/13 02:51:10;;;;;;;4.07;3.87;;;15.20;54.30;;;;;;6278317;28;20375;-80
2023/06/13 02:54:13;;;;;;;4.80;4.37;;;15.20;54.20;;;;;;6274986;28;20233;-79
2023/06/13 02:57:16;;;;;;;7.23;4.03;;;15.20;54.30;;;;;;6275857;28;20698;-82
2023/06/13 03:00:20;;;;;;;4.80;4.33;;;15.10;54.40;;;;;;6275432;28;20897;-81
2023/06/13 03:03:24;;;;;;;4.60;4.30;;;15.10;54.40;;;;;;6280679;28;20247;-81
2023/06/13 03:06:30;;;;;;;5.77;4.23;;;15.00;54.60;;;;;;6273972;28;20249;-81
2023/06/13 03:09:33;;;;;;;4.67;4.30;;;15.00;54.80;;;;;;6263616;28;20229;-82
2023/06/13 03:12:37;;;;;;;4.83;4.43;;;15.00;55.00;;;;;;6272236;28;20261;-81
2023/06/13 03:15:41;;;;;;;4.73;4.47;;;15.00;55.00;;;;;;6280331;28;20237;-81
2023/06/13 03:18:44;;;;;;;4.17;4.07;;;15.00;55.00;;;;;;6266898;28;20238;-81
2023/06/13 03:21:48;;;;;;;4.57;4.37;;;15.00;55.20;;;;;;6261617;28;20241;-79
2023/06/13 03:24:52;;;;;;;4.40;4.10;;;15.00;55.10;;;;;;6287685;28;20302;-81
2023/06/13 03:27:56;;;;;;;4.57;4.30;;;15.00;55.30;;;;;;6267041;28;21226;-83
2023/06/13 03:31:01;;;;;;;4.37;4.17;;;15.00;55.30;;;;;;6283926;28;20241;-81
2023/06/13 03:34:04;;;;;;;4.80;4.60;;;15.00;55.40;;;;;;6261098;28;20262;-80
2023/06/13 03:37:08;;;;;;;4.60;4.30;;;15.00;55.60;;;;;;6275485;28;20766;-82
2023/06/13 03:40:12;;;;;;;4.43;4.07;;;15.00;55.70;;;;;;6277989;28;20725;-81
2023/06/13 03:43:15;;;;;;;5.00;4.80;;;15.00;55.60;;;;;;6257674;28;20690;-82
2023/06/13 03:46:20;;;;;;;4.33;4.13;;;15.00;55.50;;;;;;6282277;28;20382;-80
2023/06/13 03:49:23;;;;;;;5.60;4.57;;;15.10;55.50;;;;;;6277330;28;20321;-82
2023/06/13 03:52:27;;;;;;;5.30;4.80;;;15.10;55.70;;;;;;6267754;28;20775;-80
2023/06/13 03:55:32;;;;;;;4.70;4.40;;;15.10;56.00;;;;;;6261142;28;20768;-84
2023/06/13 03:58:35;;;;;;;4.33;4.13;;;15.10;55.90;;;;;;6274405;28;20824;-82
2023/06/13 04:01:41;;;;;;;5.30;4.90;;;15.10;55.80;;;;;;6267608;28;20240;-83
2023/06/13 04:04:46;;;;;;;5.33;4.60;;;15.20;56.00;;;;;;6258434;28;20241;-84
2023/06/13 04:07:49;;;;;;;5.13;4.67;;;15.20;56.00;;;;;;6260042;28;20280;-82
2023/06/13 04:10:52;;;;;;;5.93;4.63;;;15.20;56.10;;;;;;6265457;28;20356;-83
2023/06/13 04:13:55;;;;;;;4.83;4.47;;;15.20;56.20;;;;;;6258821;28;20234;-83
2023/06/13 04:17:00;;;;;;;5.00;4.70;;;15.30;56.10;;;;;;6273988;28;20692;-84
2023/06/13 04:20:05;;;;;;;5.20;4.80;;;15.30;56.00;;;;;;6280913;28;20319;-82
2023/06/13 04:23:08;;;;;;;4.93;4.63;;;15.40;56.00;;;;;;6285332;28;20245;-79
2023/06/13 04:26:12;;;;;;;5.07;4.67;;;15.50;55.80;;;;;;6276645;28;20304;-80
2023/06/13 04:29:17;;;;;;;5.17;4.50;;;15.60;55.70;;;;;;6282535;28;20234;-83
2023/06/13 04:32:23;;;;;;;7.30;4.37;;;15.80;55.60;;;;;;6281636;28;20288;-83
2023/06/13 04:35:26;;;;;;;4.60;4.23;;;15.80;55.30;;;;;;6287867;28;20240;-83
2023/06/13 04:38:30;;;;;;;5.37;4.97;;;15.90;55.50;;;;;;6287009;28;20734;-81
2023/06/13 04:41:34;;;;;;;5.10;4.80;;;15.90;55.40;;;;;;6282857;28;20245;-79
2023/06/13 04:44:39;;;;;;;5.00;4.70;;;16.00;55.50;;;;;;6283836;28;20249;-81
2023/06/13 04:47:47;;;;;;;5.20;4.90;;;16.00;55.30;;;;;;6262666;28;20230;-80
2023/06/13 04:51:00;;;;;;;5.57;5.37;;;16.10;55.20;;;;;;6262922;28;20238;-82
2023/06/13 04:54:09;;;;;;;5.60;5.10;;;16.10;55.00;;;;;;6257827;28;20238;-81
2023/06/13 04:57:12;;;;;;;6.00;5.40;;;16.30;55.10;;;;;;6254988;28;20242;-81
2023/06/13 05:00:16;;;;;;;6.60;5.67;;;16.40;54.90;;;;;;6259577;28;20238;-81
2023/06/13 05:03:23;;;;;;;5.83;4.73;;;16.60;54.00;;;;;;6267295;28;20717;-79
2023/06/13 05:06:27;;;;;;;4.70;4.50;;;16.70;54.10;;;;;;6261736;28;20227;-80
2023/06/13 05:09:30;;;;;;;5.53;5.13;;;16.80;54.00;;;;;;6277900;28;20237;-81
2023/06/13 05:12:33;;;;;;;5.17;4.87;;;17.00;53.80;;;;;;6265969;28;20237;-79
2023/06/13 05:15:37;;;;;;;5.73;5.10;;;17.40;53.30;;;;;;6272060;28;20728;-82
2023/06/13 05:18:41;;;;;;;9.10;5.23;;;17.80;53.00;;;;;;6265533;28;20246;-84
2023/06/13 05:21:46;;;;;;;4.93;4.60;;;18.10;51.80;;;;;;6266579;28;20238;-80
2023/06/13 05:24:49;;;;;;;5.80;5.30;;;18.50;51.20;;;;;;6269309;28;20234;-81
2023/06/13 05:27:53;;;;;;;6.90;5.47;;;18.80;50.50;;;;;;6257129;28;20261;-83
2023/06/13 05:30:56;;;;;;;10.30;5.10;;;19.10;50.40;;;;;;6275239;28;20606;-78
2023/06/13 05:34:01;;;;;;;4.97;4.57;;;19.40;49.80;;;;;;6261506;28;20241;-80
2023/06/13 05:37:10;;;;;;;5.87;5.00;;;19.70;49.50;;;;;;6262961;28;21140;-79
2023/06/13 05:40:19;;;;;;;7.60;5.07;;;19.90;49.30;;;;;;6258360;28;20729;-80
2023/06/13 05:43:23;;;;;;;7.27;5.33;;;20.10;48.30;;;;;;6254253;28;20234;-80
2023/06/13 05:46:26;;;;;;;5.77;5.37;;;20.20;48.20;;;;;;6267470;28;20252;-83
2023/06/13 05:49:30;;;;;;;5.37;4.97;;;20.10;48.50;;;;;;6265105;28;20234;-82
2023/06/13 05:52:34;;;;;;;7.67;5.33;;;20.10;48.50;;;;;;6264569;28;20626;-81
2023/06/13 05:55:37;;;;;;;7.90;5.83;;;20.00;48.20;;;;;;6261398;28;20273;-81
2023/06/13 05:58:41;;;;;;;5.03;4.53;;;20.00;48.30;;;;;;6267114;28;20773;-82
2023/06/13 06:01:44;;;;;;;6.93;5.60;;;20.10;48.20;;;;;;6276909;28;20272;-79
2023/06/13 06:04:51;;;;;;;5.80;5.30;;;20.20;47.90;;;;;;6275574;28;20242;-81
2023/06/13 06:07:54;;;;;;;9.33;5.23;;;20.30;48.40;;;;;;6267814;28;20234;-81
2023/06/13 06:10:57;;;;;;;5.37;4.90;;;20.50;48.30;;;;;;6273230;28;20247;-79
2023/06/13 06:14:00;;;;;;;5.10;4.77;;;21.10;48.30;;;;;;6268661;28;20237;-80
2023/06/13 06:17:04;;;;;;;5.67;4.57;;;21.40;47.10;;;;;;6277121;28;20238;-81
2023/06/13 06:20:09;;;;;;;6.33;5.23;;;21.90;46.40;;;;;;6265458;28;20728;-79
2023/06/13 06:23:14;;;;;;;6.07;4.97;;;22.00;45.80;;;;;;6254975;28;21627;-78
2023/06/13 06:26:18;;;;;;;10.73;5.23;;;22.10;45.50;;;;;;6262672;28;20257;-79
2023/06/13 06:29:21;;;;;;;11.37;5.47;;;22.00;45.10;;;;;;6266741;28;20245;-80
2023/06/13 06:32:24;;;;;;;12.63;5.43;;;21.90;45.40;;;;;;6269270;28;20368;-82
2023/06/13 06:35:28;;;;;;;5.97;5.37;;;21.70;45.50;;;;;;6259881;28;20243;-79
2023/06/13 06:38:32;;;;;;;7.67;5.10;;;21.70;45.40;;;;;;6271223;28;20297;-80
2023/06/13 06:41:35;;;;;;;7.83;5.20;;;21.70;45.70;;;;;;6281972;28;20689;-82
2023/06/13 06:44:38;;;;;;;7.33;4.87;;;21.40;45.20;;;;;;6269540;28;20433;-81
2023/06/13 06:47:47;;;;;;;5.20;4.90;;;21.30;45.60;;;;;;6264306;28;20238;-81
2023/06/13 06:50:52;;;;;;;8.03;4.93;;;21.10;46.20;;;;;;6280787;28;20301;-79
2023/06/13 06:53:56;;;;;;;9.50;5.07;;;21.10;46.30;;;;;;6261386;28;20234;-78
2023/06/13 06:57:00;;;;;;;7.17;5.00;;;21.10;46.50;;;;;;6269169;28;20803;-80
2023/06/13 07:00:04;;;;;;;5.50;5.30;;;21.30;47.10;;;;;;6268793;28;20396;-82
2023/06/13 07:03:08;;;;;;;5.10;4.80;;;21.50;46.70;;;;;;6267720;28;20720;-79
2023/06/13 07:06:14;;;;;;;5.73;5.20;;;21.80;45.40;;;;;;6279786;28;20231;-79
2023/06/13 07:09:17;;;;;;;4.90;4.60;;;22.10;45.20;;;;;;6282137;28;20391;-80
2023/06/13 07:12:20;;;;;;;5.57;5.07;;;22.10;44.10;;;;;;6277582;28;20245;-80
2023/06/13 07:15:23;;;;;;;7.20;5.07;;;21.90;44.30;;;;;;6268980;28;20263;-80
2023/06/13 07:18:29;;;;;;;5.40;4.90;;;21.50;44.80;;;;;;6266304;28;20279;-81
2023/06/13 07:21:34;;;;;;;6.67;5.07;;;21.30;44.80;;;;;;6277871;28;20299;-80
2023/06/13 07:24:37;;;;;;;5.30;4.80;;;21.10;44.80;;;;;;6275721;28;20280;-80
2023/06/13 07:27:40;;;;;;;6.43;4.80;;;21.10;45.20;;;;;;6274497;28;20241;-81
2023/06/13 07:30:43;;;;;;;11.50;5.30;;;21.10;45.60;;;;;;6277774;28;20269;-81
2023/06/13 07:33:46;;;;;;;8.20;4.83;;;21.10;45.90;;;;;;6263638;28;20308;-80
2023/06/13 07:36:50;;;;;;;10.03;5.43;;;21.30;45.70;;;;;;6277534;28;20381;-81
2023/06/13 07:39:53;;;;;;;10.07;5.03;;;21.50;45.70;;;;;;6274377;28;20237;-82
2023/06/13 07:42:56;;;;;;;6.57;4.73;;;21.70;45.90;;;;;;6272239;28;20249;-80
2023/06/13 07:46:00;;;;;;;9.03;4.60;;;21.70;45.90;;;;;;6265329;28;20242;-80
2023/06/13 07:49:03;;;;;;;6.07;4.73;;;22.00;45.20;;;;;;6283696;28;20935;-77
2023/06/13 07:52:08;;;;;;;10.23;4.47;;;22.00;45.40;;;;;;6292365;28;21652;-82
2023/06/13 07:55:12;;;;;;;5.43;4.50;;;22.20;45.60;;;;;;6283318;28;20238;-80
2023/06/13 07:58:16;;;;;;;8.97;5.10;;;22.50;45.30;;;;;;6267202;28;20237;-80
2023/06/13 08:01:21;;;;;;;5.37;4.87;;;22.60;44.80;;;;;;6282009;28;20251;-82
2023/06/13 08:04:24;;;;;;;5.17;4.77;;;22.60;45.40;;;;;;6280653;28;20221;-81
2023/06/13 08:07:39;;;;;;;5.57;4.93;;;22.70;45.70;;;;;;6265851;28;20244;-82
2023/06/13 08:10:42;;;;;;;15.17;5.37;;;22.70;45.00;;;;;;6277021;28;20794;-81
2023/06/13 08:13:46;;;;;;;7.13;4.93;;;22.80;44.80;;;;;;6277064;28;20237;-79
2023/06/13 08:16:49;;;;;;;9.63;5.20;;;22.80;45.00;;;;;;6270482;28;20234;-80
2023/06/13 08:19:53;;;;;;;5.07;4.77;;;22.60;44.90;;;;;;6277322;28;20646;-79
2023/06/13 08:22:59;;;;;;;5.73;4.57;;;22.70;44.40;;;;;;6269057;28;20242;-82
2023/06/13 08:26:02;;;;;;;7.83;4.93;;;22.70;43.70;;;;;;6265593;28;20319;-80
2023/06/13 08:29:06;;;;;;;4.90;4.50;;;22.60;44.40;;;;;;6268098;28;20308;-80
2023/06/13 08:32:10;;;;;;;6.03;4.63;;;22.50;43.90;;;;;;6274092;28;20719;-79
2023/06/13 08:35:13;;;;;;;4.67;4.30;;;22.60;44.30;;;;;;6273548;28;20297;-79
2023/06/13 08:38:19;;;;;;;14.33;5.30;;;22.70;44.00;;;;;;6270932;28;20230;-81
2023/06/13 08:41:22;;;;;;;5.87;4.77;;;22.90;44.20;;;;;;6269572;28;20237;-81
2023/06/13 08:44:27;;;;;;;12.37;4.80;;;22.80;43.20;;;;;;6279698;28;20725;-79
2023/06/13 08:47:30;;;;;;;5.03;4.73;;;22.50;43.50;;;;;;6268648;28;20237;-79
2023/06/13 08:50:43;;;;;;;6.03;4.80;;;22.30;43.70;;;;;;6279804;28;20233;-80
2023/06/13 08:53:50;;;;;;;4.70;4.40;;;22.20;43.90;;;;;;6273464;28;20230;-80
2023/06/13 08:56:54;;;;;;;7.30;4.67;;;22.50;44.30;;;;;;6278180;28;20241;-81
2023/06/13 08:59:57;;;;;;;5.00;4.63;;;22.60;43.80;;;;;;6282152;28;20245;-80
2023/06/13 09:03:03;;;;;;;10.47;4.43;;;22.70;43.90;;;;;;6275369;28;20260;-83
2023/06/13 09:06:07;;;;;;;4.90;4.60;;;23.00;43.70;;;;;;6268831;28;20230;-82
2023/06/13 09:09:15;;;;;;;5.90;4.40;;;23.20;43.60;;;;;;6277143;28;20308;-81
2023/06/13 09:12:20;;;;;;;4.93;4.30;;;23.40;43.00;;;;;;6273372;28;20332;-81
2023/06/13 09:15:24;;;;;;;11.67;5.03;;;23.50;43.20;;;;;;6283402;28;20233;-81
2023/06/13 09:18:36;;;;;;;7.77;4.33;;;23.40;43.10;;;;;;6275229;28;20314;-81
2023/06/13 09:21:40;;;;;;;7.27;4.47;;;23.40;42.70;;;;;;6269512;28;20269;-80
2023/06/13 09:24:45;;;;;;;7.40;4.50;;;23.60;42.20;;;;;;6276729;28;20380;-82
2023/06/13 09:27:49;;;;;;;5.03;4.30;;;23.60;42.20;;;;;;6263460;28;20260;-81
2023/06/13 09:30:52;;;;;;;7.47;4.30;;;23.80;41.40;;;;;;6284407;28;20257;-80
2023/06/13 09:33:55;;;;;;;7.87;4.60;;;23.90;41.60;;;;;;6266404;28;20607;-81
2023/06/13 09:36:59;;;;;;;8.87;4.70;;;23.90;41.10;;;;;;6275098;28;20244;-80
2023/06/13 09:40:09;;;;;;;8.27;4.70;;;24.00;41.30;;;;;;6261393;28;20230;-82
2023/06/13 09:43:18;;;;;;;7.83;4.70;;;24.20;40.50;;;;;;6267101;28;20230;-80
2023/06/13 09:46:23;;;;;;;5.83;4.40;;;24.20;40.90;;;;;;6283058;28;20245;-81
2023/06/13 09:49:30;;;;;;;5.40;4.63;;;24.20;41.00;;;;;;6280342;28;20838;-80
2023/06/13 09:52:40;;;;;;;6.70;4.90;;;24.10;40.70;;;;;;6280992;28;20238;-81
2023/06/13 09:55:45;;;;;;;6.73;4.37;;;24.20;40.30;;;;;;6273523;28;20225;-81
2023/06/13 09:58:48;;;;;;;11.23;5.00;;;24.20;41.20;;;;;;6272509;28;20241;-81
2023/06/13 10:01:51;;;;;;;9.70;4.10;;;24.20;41.10;;;;;;6279703;28;20234;-81
2023/06/13 10:04:55;;;;;;;6.60;4.37;;;24.20;40.20;;;;;;6278961;28;20557;-83
2023/06/13 10:07:58;;;;;;;5.07;4.17;;;24.00;40.10;;;;;;6281181;28;20233;-82
2023/06/13 10:11:08;;;;;;;7.03;4.30;;;24.00;40.20;;;;;;6265559;28;20238;-82
2023/06/13 10:14:20;;;;;;;4.37;4.00;;;24.20;40.30;;;;;;6263725;28;20249;-82
2023/06/13 10:17:24;;;;;;;6.73;4.27;;;24.30;40.10;;;;;;6274520;28;20246;-82
2023/06/13 10:20:29;;;;;;;5.93;4.00;;;24.30;40.00;;;;;;6280988;28;20239;-81
2023/06/13 10:23:37;;;;;;;5.90;3.50;;;24.40;39.80;;;;;;6252544;28;20795;-83
2023/06/13 10:26:43;;;;;;;4.93;3.67;;;24.20;39.40;;;;;;6274592;28;20225;-81
2023/06/13 10:30:01;;;;;;;4.47;3.67;;;24.30;39.00;;;;;;6271005;28;20225;-81
2023/06/13 10:33:19;;;;;;;3.60;3.23;;;24.00;38.30;;;;;;6267733;28;20242;-79
2023/06/13 10:36:40;;;;;;;3.63;3.43;;;24.00;39.10;;;;;;6273661;28;20242;-81
2023/06/13 10:40:05;;;;;;;4.50;3.93;;;24.00;39.50;;;;;;6279280;28;20287;-80
2023/06/13 10:43:16;;;;;;;6.57;3.50;;;24.20;39.70;;;;;;6265607;28;20569;-83
2023/06/13 10:46:20;;;;;;;5.63;4.00;;;24.00;39.50;;;;;;6274909;28;20298;-82
2023/06/13 10:49:23;;;;;;;4.93;3.70;;;24.00;39.80;;;;;;6270588;28;20364;-79
2023/06/13 10:52:26;;;;;;;6.87;4.23;;;23.90;39.70;;;;;;6276949;28;20251;-81
2023/06/13 10:55:31;;;;;;;6.63;3.80;;;23.80;40.40;;;;;;6278756;28;20316;-80
2023/06/13 10:58:36;;;;;;;4.23;3.30;;;23.80;40.10;;;;;;6277758;28;20233;-80
2023/06/13 11:01:40;;;;;;;4.67;3.47;;;23.70;39.30;;;;;;6265305;28;20246;-82
2023/06/13 11:04:50;;;;;;;4.53;3.77;;;23.60;39.70;;;;;;6263572;28;20223;-82
2023/06/13 11:07:55;;;;;;;5.93;3.63;;;23.60;39.50;;;;;;6273281;28;22876;-79
2023/06/13 11:10:58;;;;;;;9.23;3.73;;;23.60;40.10;;;;;;6267900;28;20298;-83
2023/06/13 11:14:02;;;;;;;4.30;3.90;;;23.70;40.30;;;;;;6265083;28;20232;-81
2023/06/13 11:17:07;;;;;;;6.10;4.03;;;23.90;40.20;;;;;;6270420;28;20256;-81
2023/06/13 11:20:19;;;;;;;7.27;3.67;;;24.00;40.70;;;;;;6272384;28;20249;-81
2023/06/13 11:23:25;;;;;;;7.27;4.17;;;24.00;40.80;;;;;;6255410;28;20249;-83
2023/06/13 11:26:31;;;;;;;4.50;3.70;;;24.20;40.70;;;;;;6267569;28;20240;-80
2023/06/13 11:29:37;;;;;;;9.77;4.17;;;24.30;41.20;;;;;;6274065;28;20729;-83
2023/06/13 11:32:41;;;;;;;7.90;4.10;;;24.40;41.10;;;;;;6275654;28;20309;-82
2023/06/13 11:35:49;;;;;;;3.93;3.60;;;24.20;41.20;;;;;;6276067;28;20325;-79
2023/06/13 11:38:58;;;;;;;6.50;3.77;;;24.20;40.90;;;;;;6279447;28;20472;-79
2023/06/13 11:42:02;;;;;;;4.10;3.83;;;24.00;40.20;;;;;;6279811;28;20303;-79
2023/06/13 11:45:08;;;;;;;5.73;3.80;;;24.00;40.40;;;;;;6261391;28;20354;-83
2023/06/13 11:48:12;;;;;;;3.70;3.50;;;24.00;40.60;;;;;;6276147;28;20297;-81
2023/06/13 11:51:16;;;;;;;4.23;3.97;;;24.10;40.90;;;;;;6281852;28;20312;-81
2023/06/13 11:54:28;;;;;;;3.83;3.57;;;24.20;40.50;;;;;;6278771;28;20249;-82
2023/06/13 11:57:44;;;;;;;4.80;3.80;;;24.30;41.30;;;;;;6271478;28;20242;-81
2023/06/13 12:00:54;;;;;;;5.33;3.73;;;24.50;40.30;;;;;;6272060;28;20230;-79
2023/06/13 12:03:58;;;;;;;6.87;3.53;;;24.70;40.00;;;;;;6277850;28;20233;-80
2023/06/13 12:07:04;;;;;;;6.90;4.30;;;24.80;39.20;;;;;;6276443;28;20233;-82
2023/06/13 12:10:08;;;;;;;9.47;3.63;;;24.80;39.90;;;;;;6271241;28;20238;-81
2023/06/13 12:13:11;;;;;;;4.13;3.43;;;24.90;40.00;;;;;;6278219;28;20241;-79
2023/06/13 12:16:16;;;;;;;3.70;3.40;;;24.80;39.70;;;;;;6274184;28;20303;-83
2023/06/13 12:19:20;;;;;;;7.93;3.57;;;24.50;39.90;;;;;;6263956;28;20238;-82
2023/06/13 12:22:28;;;;;;;6.00;4.03;;;24.40;40.00;;;;;;6273481;28;20496;-82
2023/06/13 12:25:32;;;;;;;4.53;3.80;;;24.00;40.30;;;;;;6285869;28;20300;-81
2023/06/13 12:28:35;;;;;;;3.87;3.43;;;24.00;39.90;;;;;;6273564;28;20230;-80
2023/06/13 12:31:43;;;;;;;4.20;4.00;;;24.40;40.10;;;;;;6270420;28;20227;-82
2023/06/13 12:34:51;;;;;;;11.60;3.70;;;24.50;39.70;;;;;;6277506;28;20239;-83
2023/06/13 12:37:58;;;;;;;9.80;3.83;;;24.30;40.10;;;;;;6289831;28;20233;-80
2023/06/13 12:41:14;;;;;;;8.07;3.40;;;24.30;40.40;;;;;;6267560;28;20245;-82
2023/06/13 12:44:18;;;;;;;7.73;3.97;;;24.40;40.00;;;;;;6269066;28;20285;-76
2023/06/13 12:47:24;;;;;;;11.33;3.83;;;24.40;40.30;;;;;;6274559;28;20245;-81
2023/06/13 12:50:29;;;;;;;3.80;3.10;;;24.50;40.00;;;;;;6273349;28;20707;-80
2023/06/13 12:53:32;;;;;;;3.80;3.50;;;24.20;39.60;;;;;;6276078;28;20230;-78
2023/06/13 12:56:35;;;;;;;7.60;3.90;;;24.40;40.10;;;;;;6269557;28;20261;-83
2023/06/13 12:59:40;;;;;;;3.77;3.47;;;24.50;39.30;;;;;;6283142;28;20263;-84
2023/06/13 13:02:45;;;;;;;3.50;3.10;;;24.50;39.60;;;;;;6280650;28;20240;-80
2023/06/13 13:05:49;;;;;;;5.20;3.67;;;24.60;38.70;;;;;;6279818;28;20226;-84
2023/06/13 13:08:52;;;;;;;6.10;3.40;;;24.70;39.00;;;;;;6276240;28;20754;-83
2023/06/13 13:11:57;;;;;;;6.07;3.40;;;25.00;38.60;;;;;;6273390;28;20318;-81
2023/06/13 13:15:00;;;;;;;7.50;3.50;;;24.80;39.30;;;;;;6274954;28;20230;-85
2023/06/13 13:18:05;;;;;;;4.33;3.87;;;24.90;39.50;;;;;;6268591;28;20246;-80
2023/06/13 13:21:09;;;;;;;9.67;3.77;;;24.90;39.40;;;;;;6279420;28;20234;-82
2023/06/13 13:24:13;;;;;;;3.50;3.20;;;24.80;39.00;;;;;;6278791;28;20248;-82
2023/06/13 13:27:16;;;;;;;3.80;3.40;;;24.50;39.30;;;;;;6277656;28;20307;-82
2023/06/13 13:30:20;;;;;;;4.30;3.20;;;24.60;39.40;;;;;;6283507;28;20237;-80
2023/06/13 13:33:25;;;;;;;8.50;3.57;;;24.70;39.60;;;;;;6263276;28;20302;-83
2023/06/13 13:36:28;;;;;;;4.67;2.97;;;24.70;39.60;;;;;;6275329;28;20885;-81
2023/06/13 13:39:31;;;;;;;3.57;3.47;;;24.60;39.30;;;;;;6275644;28;20287;-82
2023/06/13 13:42:36;;;;;;;4.20;3.80;;;24.30;39.60;;;;;;6271998;28;20234;-81
2023/06/13 13:45:39;;;;;;;6.33;3.20;;;24.00;39.70;;;;;;6275274;28;20248;-82
2023/06/13 13:48:44;;;;;;;7.40;3.33;;;24.10;39.90;;;;;;6273075;28;20305;-82
2023/06/13 13:51:48;;;;;;;5.00;3.30;;;24.40;40.00;;;;;;6276417;28;20254;-79
2023/06/13 13:54:52;;;;;;;3.67;3.33;;;24.60;40.00;;;;;;6277862;28;20233;-80
2023/06/13 13:57:55;;;;;;;3.23;3.00;;;25.00;39.30;;;;;;6287543;28;20272;-82
2023/06/13 14:00:58;;;;;;;3.73;3.57;;;25.10;39.00;;;;;;6287188;28;20243;-82
2023/06/13 14:04:03;;;;;;;5.00;4.77;;;25.20;38.80;;;;;;6274311;28;20289;-82
2023/06/13 14:07:07;;;;;;;2.90;2.80;;;25.10;39.40;;;;;;6262743;28;20256;-80
2023/06/13 14:10:10;;;;;;;3.60;3.30;;;25.00;39.00;;;;;;6260299;28;20237;-81
2023/06/13 14:13:14;;;;;;;3.80;3.43;;;25.10;39.60;;;;;;6286608;28;20232;-84
2023/06/13 14:16:18;;;;;;;3.47;3.20;;;25.20;39.20;;;;;;6266315;28;20229;-84
2023/06/13 14:19:23;;;;;;;4.30;3.30;;;25.20;39.40;;;;;;6272254;28;20240;-81
2023/06/13 14:22:26;;;;;;;4.17;3.30;;;25.00;39.60;;;;;;6272045;28;20697;-80
2023/06/13 14:25:29;;;;;;;4.50;3.83;;;24.70;40.30;;;;;;6284723;28;20684;-83
2023/06/13 14:28:32;;;;;;;3.27;3.20;;;24.70;40.10;;;;;;6279614;28;20240;-81
2023/06/13 14:31:35;;;;;;;3.53;3.00;;;24.60;40.40;;;;;;6268100;28;20238;-81
2023/06/13 14:34:40;;;;;;;3.83;3.40;;;24.60;40.50;;;;;;6279764;28;20316;-82
2023/06/13 14:37:44;;;;;;;3.57;3.27;;;24.50;40.20;;;;;;6268714;28;21161;-81
2023/06/13 14:40:47;;;;;;;5.17;3.27;;;24.30;40.70;;;;;;6268695;28;20260;-81
2023/06/13 14:43:50;;;;;;;3.57;3.37;;;24.10;40.90;;;;;;6266176;28;20664;-81
2023/06/13 14:46:54;;;;;;;3.20;3.00;;;24.00;41.00;;;;;;6278334;28;20233;-83
2023/06/13 14:49:58;;;;;;;6.97;3.50;;;24.40;41.10;;;;;;6278637;28;20222;-81
2023/06/13 14:53:02;;;;;;;7.00;3.40;;;24.40;40.50;;;;;;6276014;28;20295;-81
2023/06/13 14:56:07;;;;;;;3.90;3.50;;;24.00;40.50;;;;;;6279060;28;20391;-82
2023/06/13 14:59:10;;;;;;;3.87;3.57;;;24.00;40.70;;;;;;6281949;28;20293;-81
2023/06/13 15:02:13;;;;;;;3.23;3.13;;;23.80;41.00;;;;;;6275356;28;20244;-79
2023/06/13 15:05:17;;;;;;;5.10;3.00;;;23.60;41.10;;;;;;6271583;28;20886;-81
2023/06/13 15:08:21;;;;;;;4.43;3.30;;;23.60;41.50;;;;;;6268431;28;20242;-82
2023/06/13 15:11:24;;;;;;;3.57;3.40;;;23.90;41.30;;;;;;6273424;28;20257;-81
2023/06/13 15:14:27;;;;;;;3.70;3.33;;;24.30;41.00;;;;;;6261235;28;20291;-80
2023/06/13 15:17:31;;;;;;;3.70;3.43;;;24.60;40.50;;;;;;6268462;28;20740;-80
2023/06/13 15:20:38;;;;;;;4.33;3.03;;;24.70;40.40;;;;;;6268268;28;20691;-82
2023/06/13 15:23:41;;;;;;;3.93;2.87;;;24.60;40.40;;;;;;6268674;28;20253;-80
2023/06/13 15:26:44;;;;;;;3.23;2.93;;;24.60;40.30;;;;;;6272451;28;20238;-80
2023/06/13 15:29:47;;;;;;;2.93;2.33;;;24.40;40.40;;;;;;6267203;28;20321;-82
2023/06/13 15:32:51;;;;;;;2.90;2.80;;;24.20;40.30;;;;;;6273570;28;20321;-79
2023/06/13 15:35:56;;;;;;;2.70;2.60;;;24.00;40.70;;;;;;6272080;28;20287;-80
2023/06/13 15:38:59;;;;;;;2.60;2.50;;;24.00;40.50;;;;;;6269761;28;20318;-80
2023/06/13 15:42:02;;;;;;;3.57;3.27;;;24.00;40.30;;;;;;6270632;28;20232;-82
2023/06/13 15:45:06;;;;;;;2.93;2.70;;;24.10;40.20;;;;;;6274466;28;20370;-79
2023/06/13 15:48:09;;;;;;;2.87;2.77;;;24.10;40.70;;;;;;6274884;28;20304;-80
2023/06/13 15:51:14;;;;;;;3.10;2.83;;;24.20;41.00;;;;;;6281450;28;20269;-79
2023/06/13 15:54:17;;;;;;;3.20;2.93;;;24.00;41.00;;;;;;6283670;28;20886;-79
2023/06/13 15:57:21;;;;;;;2.70;2.60;;;24.00;41.00;;;;;;6268958;28;20316;-78
2023/06/13 16:00:24;;;;;;;4.47;2.87;;;23.80;41.00;;;;;;6280431;28;20229;-81